createdAt,value
2019-04-10T00:02:39.867Z,101306.40
2019-04-10T00:05:47.973Z,101302.97
2019-04-10T00:08:55.290Z,101306.81
2019-04-10T00:12:02.691Z,101310.20
2019-04-10T00:15:10.095Z,101309.06
2019-04-10T00:18:18.009Z,101315.14
2019-04-10T00:21:35.527Z,101313.70
2019-04-10T00:24:42.911Z,101316.05
2019-04-10T00:27:50.784Z,101312.72
2019-04-10T00:31:07.614Z,101313.63
2019-04-10T00:34:25.332Z,101307.38
2019-04-10T00:37:33.907Z,101305.75
2019-04-10T00:40:41.964Z,101315.34
2019-04-10T00:43:59.379Z,101307.28
2019-04-10T00:47:06.727Z,101315.79
2019-04-10T00:50:14.633Z,101310.98
2019-04-10T00:53:31.406Z,101307.93
2019-04-10T00:56:48.573Z,101310.97
2019-04-10T01:00:06.494Z,101311.05
2019-04-10T01:03:33.715Z,101309.33
2019-04-10T01:06:41.055Z,101316.20
2019-04-10T01:09:48.274Z,101318.05
2019-04-10T01:12:56.544Z,101313.34
2019-04-10T01:16:04.162Z,101314.72
2019-04-10T01:19:12.074Z,101316.91
2019-04-10T01:22:19.302Z,101314.78
2019-04-10T01:25:26.600Z,101318.08
2019-04-10T01:28:43.364Z,101313.42
2019-04-10T01:31:51.222Z,101311.31
2019-04-10T01:34:58.891Z,101308.80
2019-04-10T01:38:06.628Z,101311.01
2019-04-10T01:41:13.698Z,101311.30
2019-04-10T01:44:20.922Z,101317.14
2019-04-10T01:47:28.901Z,101310.33
2019-04-10T01:50:36.785Z,101312.14
2019-04-10T01:53:44.221Z,101308.03
2019-04-10T01:56:52.130Z,101307.91
2019-04-10T02:00:00.412Z,101307.50
2019-04-10T02:03:22.209Z,101303.80
2019-04-10T02:06:29.562Z,101306.43
2019-04-10T02:09:37.193Z,101308.05
2019-04-10T02:12:45.151Z,101309.02
2019-04-10T02:16:02.766Z,101303.95
2019-04-10T02:19:10.133Z,101309.11
2019-04-10T02:22:17.519Z,101304.96
2019-04-10T02:25:24.871Z,101300.95
2019-04-10T02:28:33.359Z,101303.03
2019-04-10T02:31:40.607Z,101304.61
2019-04-10T02:34:49.142Z,101303.27
2019-04-10T02:38:00.570Z,101307.85
2019-04-10T02:41:06.552Z,101299.97
2019-04-10T02:44:26.119Z,101301.60
2019-04-10T02:47:50.911Z,101299.86
2019-04-10T02:50:59.573Z,101302.86
2019-04-10T02:54:07.107Z,101303.67
2019-04-10T02:57:14.340Z,101301.11
2019-04-10T03:00:22.470Z,101301.20
2019-04-10T03:03:31.035Z,101307.16
2019-04-10T03:06:47.942Z,101299.09
2019-04-10T03:10:21.663Z,101301.98
2019-04-10T03:13:30.933Z,101304.57
2019-04-10T03:16:47.893Z,101306.56
2019-04-10T03:19:56.080Z,101314.78
2019-04-10T03:23:03.466Z,101308.91
2019-04-10T03:26:20.271Z,101310.94
2019-04-10T03:29:37.993Z,101308.77
2019-04-10T03:33:07.465Z,101310.08
2019-04-10T03:36:13.649Z,101315.53
2019-04-10T03:39:21.599Z,101318.58
2019-04-10T03:42:28.915Z,101314.45
2019-04-10T03:45:36.953Z,101320.02
2019-04-10T03:48:53.790Z,101316.62
2019-04-10T03:51:59.309Z,101317.52
2019-04-10T03:55:06.821Z,101318.73
2019-04-10T03:58:23.477Z,101313.70
2019-04-10T04:01:29.951Z,101311.69
2019-04-10T04:04:37.694Z,101320.73
2019-04-10T04:07:45.150Z,101313.88
2019-04-10T04:11:03.088Z,101310.45
2019-04-10T04:14:10.442Z,101317.33
2019-04-10T04:17:17.681Z,101318.59
2019-04-10T04:20:35.011Z,101317.70
2019-04-10T04:23:42.641Z,101321.52
2019-04-10T04:26:50.799Z,101321.27
2019-04-10T04:30:08.432Z,101318.20
2019-04-10T04:33:15.639Z,101317.30
2019-04-10T04:36:22.881Z,101324.39
2019-04-10T04:39:31.425Z,101327.41
2019-04-10T04:42:38.828Z,101326.09
2019-04-10T04:45:46.306Z,101332.42
2019-04-10T04:48:54.291Z,101330.73
2019-04-10T04:52:01.106Z,101332.75
2019-04-10T04:55:17.889Z,101328.61
2019-04-10T04:58:34.555Z,101337.08
2019-04-10T05:01:42.522Z,101345.28
2019-04-10T05:04:49.848Z,101345.34
2019-04-10T05:08:02.234Z,101345.81
2019-04-10T05:11:06.419Z,101351.71
2019-04-10T05:14:13.835Z,101349.20
2019-04-10T05:17:30.962Z,101347.94
2019-04-10T05:20:50.480Z,101357.53
2019-04-10T05:24:05.918Z,101356.68
2019-04-10T05:27:14.113Z,101355.40
2019-04-10T05:30:21.259Z,101364.17
2019-04-10T05:33:28.879Z,101364.20
2019-04-10T05:36:36.188Z,101367.92
2019-04-10T05:39:50.298Z,101367.89
2019-04-10T05:43:01.951Z,101364.42
2019-04-10T05:46:18.649Z,101363.50
2019-04-10T05:49:26.007Z,101364.73
2019-04-10T05:52:43.026Z,101366.81
2019-04-10T05:55:59.393Z,101368.91
2019-04-10T05:59:08.546Z,101380.33
2019-04-10T06:02:25.221Z,101370.97
2019-04-10T06:05:42.437Z,101374.00
2019-04-10T06:08:49.694Z,101376.17
2019-04-10T06:11:57.371Z,101385.51
2019-04-10T06:15:06.470Z,101382.87
2019-04-10T06:18:13.934Z,101381.17
2019-04-10T06:21:31.421Z,101387.02
2019-04-10T06:24:38.789Z,101386.98
2019-04-10T06:27:58.942Z,101389.45
2019-04-10T06:31:06.216Z,101392.92
2019-04-10T06:34:16.020Z,101386.91
2019-04-10T06:37:30.628Z,101389.86
2019-04-10T06:40:48.226Z,101390.58
2019-04-10T06:43:55.507Z,101392.69
2019-04-10T06:47:02.785Z,101393.45
2019-04-10T06:50:10.659Z,101391.66
2019-04-10T06:53:33.656Z,101394.22
2019-04-10T06:56:50.337Z,101399.61
2019-04-10T07:00:12.713Z,101392.69
2019-04-10T07:03:18.948Z,101394.81
2019-04-10T07:06:39.368Z,101399.92
2019-04-10T07:09:35.833Z,101397.64
2019-04-10T07:12:43.894Z,101400.91
2019-04-10T07:15:54.501Z,101403.37
2019-04-10T07:19:11.633Z,101403.59
2019-04-10T07:22:28.956Z,101399.67
2019-04-10T07:25:37.441Z,101399.96
2019-04-10T07:28:46.411Z,101406.76
2019-04-10T07:31:54.891Z,101402.09
2019-04-10T07:35:03.273Z,101405.87
2019-04-10T07:38:21.195Z,101410.23
2019-04-10T07:41:29.347Z,101406.82
2019-04-10T07:44:36.710Z,101411.02
2019-04-10T07:47:44.126Z,101419.38
2019-04-10T07:50:51.618Z,101414.05
2019-04-10T07:53:59.756Z,101423.30
2019-04-10T07:57:08.297Z,101421.34
2019-04-10T08:00:25.338Z,101418.69
2019-04-10T08:03:33.421Z,101418.66
2019-04-10T08:06:39.560Z,101412.94
2019-04-10T08:09:47.124Z,101421.33
2019-04-10T08:12:54.433Z,101418.20
2019-04-10T08:16:02.839Z,101427.84
2019-04-10T08:19:10.415Z,101424.89
2019-04-10T08:22:18.000Z,101425.98
2019-04-10T08:25:25.483Z,101431.33
2019-04-10T08:28:43.307Z,101423.34
2019-04-10T08:31:50.614Z,101430.42
2019-04-10T08:34:58.224Z,101429.55
2019-04-10T08:38:05.552Z,101426.30
2019-04-10T08:41:23.311Z,101431.05
2019-04-10T08:44:30.528Z,101430.80
2019-04-10T08:47:37.833Z,101436.62
2019-04-10T08:50:46.063Z,101435.50
2019-04-10T08:53:55.226Z,101433.35
2019-04-10T08:57:03.289Z,101437.30
2019-04-10T09:00:20.654Z,101435.83
2019-04-10T09:03:27.907Z,101437.99
2019-04-10T09:06:33.994Z,101433.69
2019-04-10T09:09:41.606Z,101445.97
2019-04-10T09:12:58.300Z,101444.47
2019-04-10T09:16:15.474Z,101442.23
2019-04-10T09:19:31.971Z,101435.91
2019-04-10T09:23:06.686Z,101439.50
2019-04-10T09:25:57.678Z,101437.11
2019-04-10T09:29:06.706Z,101435.23
2019-04-10T09:32:14.650Z,101431.20
2019-04-10T09:35:22.820Z,101433.06
2019-04-10T09:38:30.614Z,101431.70
2019-04-10T09:41:38.314Z,101432.81
2019-04-10T09:45:01.090Z,101427.52
2019-04-10T09:48:18.670Z,101426.16
2019-04-10T09:51:26.676Z,101423.94
2019-04-10T09:54:34.862Z,101428.86
2019-04-10T09:57:43.089Z,101432.60
2019-04-10T10:01:01.551Z,101425.76
2019-04-10T10:04:09.195Z,101423.79
2019-04-10T10:07:16.483Z,101425.52
2019-04-10T10:10:24.660Z,101428.77
2019-04-10T10:13:31.856Z,101428.23
2019-04-10T10:16:48.445Z,101423.15
2019-04-10T10:20:07.910Z,101429.06
2019-04-10T10:23:15.816Z,101430.94
2019-04-10T10:26:32.980Z,101432.73
2019-04-10T10:29:40.371Z,101430.56
2019-04-10T10:32:48.845Z,101429.34
2019-04-10T10:35:56.126Z,101426.84
2019-04-10T10:39:10.580Z,101427.95
2019-04-10T10:42:11.889Z,101424.06
2019-04-10T10:45:29.063Z,101418.66
2019-04-10T10:48:36.398Z,101426.41
2019-04-10T10:51:44.695Z,101428.77
2019-04-10T10:55:01.190Z,101419.98
2019-04-10T10:58:17.942Z,101424.79
2019-04-10T11:01:25.241Z,101424.11
2019-04-10T11:04:43.271Z,101419.34
2019-04-10T11:07:51.532Z,101417.91
2019-04-10T11:10:59.465Z,101426.06
2019-04-10T11:14:08.214Z,101420.44
2019-04-10T11:17:15.794Z,101417.88
2019-04-10T11:20:32.567Z,101415.14
2019-04-10T11:23:49.468Z,101416.44
2019-04-10T11:27:07.921Z,101416.16
2019-04-10T11:30:24.921Z,101408.02
2019-04-10T11:33:41.374Z,101409.21
2019-04-10T11:37:16.717Z,101405.34
2019-04-10T11:40:18.014Z,101414.18
2019-04-10T11:43:36.206Z,101413.54
2019-04-10T11:46:55.632Z,101416.66
2019-04-10T11:50:16.827Z,101418.87
2019-04-10T11:53:32.686Z,101412.70
2019-04-10T11:56:39.138Z,101414.04
2019-04-10T11:59:57.028Z,101413.56
2019-04-10T12:03:16.004Z,101414.12
2019-04-10T12:06:33.885Z,101417.09
2019-04-10T12:13:10.187Z,101415.03
2019-04-10T12:16:16.820Z,101420.42
2019-04-10T12:19:25.242Z,101420.63
2019-04-10T12:22:33.761Z,101423.16
2019-04-10T12:25:39.871Z,101423.97
2019-04-10T12:28:48.044Z,101421.59
2019-04-10T12:31:56.554Z,101412.94
2019-04-10T12:35:04.684Z,101418.93
2019-04-10T12:38:13.240Z,101428.55
2019-04-10T12:41:21.471Z,101423.02
2019-04-10T12:44:29.656Z,101419.34
2019-04-10T12:47:46.205Z,101412.44
2019-04-10T12:50:53.391Z,101422.44
2019-04-10T12:54:01.160Z,101427.36
2019-04-10T12:57:08.576Z,101417.47
2019-04-10T13:00:23.643Z,101410.94
2019-04-10T13:03:31.361Z,101412.95
2019-04-10T13:06:38.626Z,101423.22
2019-04-10T13:09:46.379Z,101414.48
2019-04-10T13:13:04.040Z,101409.48
2019-04-10T13:16:11.978Z,101420.69
2019-04-10T13:19:29.173Z,101410.09
2019-04-10T13:22:38.515Z,101424.71
2019-04-10T13:25:55.065Z,101420.91
2019-04-10T13:28:54.635Z,101418.05
2019-04-10T13:32:01.916Z,101415.25
2019-04-10T13:35:10.347Z,101413.67
2019-04-10T13:38:24.131Z,101417.78
2019-04-10T13:41:26.618Z,101416.14
2019-04-10T13:44:34.882Z,101416.64
2019-04-10T13:47:42.855Z,101428.33
2019-04-10T13:50:50.813Z,101419.56
2019-04-10T13:53:58.530Z,101418.61
2019-04-10T13:57:05.860Z,101422.20
2019-04-10T14:00:33.641Z,101420.35
2019-04-10T14:03:42.478Z,101427.54
2019-04-10T14:06:50.022Z,101421.20
2019-04-10T14:09:58.582Z,101419.64
2019-04-10T14:13:07.346Z,101430.23
2019-04-10T14:16:14.939Z,101436.27
2019-04-10T14:19:22.171Z,101434.88
2019-04-10T14:22:29.585Z,101438.12
2019-04-10T14:26:39.141Z,101438.88
2019-04-10T14:29:38.548Z,101445.49
2019-04-10T14:32:55.309Z,101440.83
2019-04-10T14:36:11.995Z,101450.16
2019-04-10T14:39:28.915Z,101442.58
2019-04-10T14:42:45.656Z,101446.38
2019-04-10T14:46:03.155Z,101447.77
2019-04-10T14:49:11.128Z,101448.20
2019-04-10T14:52:18.976Z,101449.61
2019-04-10T14:55:27.253Z,101451.36
2019-04-10T14:58:35.403Z,101449.59
2019-04-10T15:01:42.681Z,101455.62
2019-04-10T15:04:51.179Z,101452.53
2019-04-10T15:07:59.503Z,101459.22
2019-04-10T15:11:16.305Z,101449.31
2019-04-10T15:14:33.963Z,101453.30
2019-04-10T15:17:42.213Z,101456.63
2019-04-10T15:20:58.658Z,101454.47
2019-04-10T15:24:15.415Z,101463.09
2019-04-10T15:27:32.135Z,101458.62
2019-04-10T15:30:48.947Z,101456.95
2019-04-10T15:33:56.293Z,101460.44
2019-04-10T15:37:13.163Z,101462.15
2019-04-10T15:40:30.325Z,101464.48
2019-04-10T15:43:37.770Z,101467.30
2019-04-10T15:46:45.639Z,101470.77
2019-04-10T15:49:53.546Z,101462.50
2019-04-10T15:53:01.973Z,101475.83
2019-04-10T15:56:19.441Z,101463.79
2019-04-10T15:59:37.107Z,101472.84
2019-04-10T16:02:54.388Z,101468.14
2019-04-10T16:06:02.688Z,101475.02
2019-04-10T16:09:10.459Z,101478.23
2019-04-10T16:12:20.597Z,101478.73
2019-04-10T16:15:39.311Z,101472.55
2019-04-10T16:18:48.555Z,101475.90
2019-04-10T16:21:56.349Z,101472.82
2019-04-10T16:25:07.399Z,101476.98
2019-04-10T16:28:14.635Z,101485.17
2019-04-10T16:31:21.758Z,101487.76
2019-04-10T16:34:29.011Z,101485.09
2019-04-10T16:37:36.318Z,101480.20
2019-04-10T16:40:43.832Z,101482.84
2019-04-10T16:43:50.980Z,101484.00
2019-04-10T16:46:58.529Z,101483.81
2019-04-10T16:50:05.975Z,101491.69
2019-04-10T16:53:13.826Z,101486.88
2019-04-10T16:56:21.272Z,101487.98
2019-04-10T16:59:28.578Z,101490.20
2019-04-10T17:02:36.562Z,101491.59
2019-04-10T17:05:53.615Z,101487.75
2019-04-10T17:09:00.940Z,101494.80
2019-04-10T17:12:09.404Z,101497.09
2019-04-10T17:15:26.283Z,101494.59
2019-04-10T17:18:43.451Z,101495.83
2019-04-10T17:21:50.813Z,101492.42
2019-04-10T17:24:58.830Z,101504.48
2019-04-10T17:28:08.220Z,101506.39
2019-04-10T17:31:16.220Z,101513.09
2019-04-10T17:34:23.537Z,101527.17
2019-04-10T17:37:31.849Z,101525.70
2019-04-10T17:40:47.752Z,101530.39
2019-04-10T17:43:49.465Z,101529.02
2019-04-10T17:46:57.606Z,101531.10
2019-04-10T17:50:18.383Z,101532.83
2019-04-10T17:53:25.681Z,101539.39
2019-04-10T17:56:33.004Z,101543.64
2019-04-10T17:59:40.736Z,101546.17
2019-04-10T18:02:57.253Z,101543.05
2019-04-10T18:06:15.149Z,101550.55
2019-04-10T18:09:24.810Z,101554.34
2019-04-10T18:12:41.281Z,101559.13
2019-04-10T18:15:57.978Z,101562.09
2019-04-10T18:19:06.440Z,101566.27
2019-04-10T18:22:14.266Z,101575.62
2019-04-10T18:25:30.859Z,101582.43
2019-04-10T18:28:38.055Z,101586.38
2019-04-10T18:31:57.213Z,101584.42
2019-04-10T18:35:14.235Z,101589.37
2019-04-10T18:38:22.311Z,101602.13
2019-04-10T18:41:38.771Z,101600.34
2019-04-10T18:44:55.538Z,101601.42
2019-04-10T18:48:18.664Z,101608.48
2019-04-10T18:51:36.225Z,101606.67
2019-04-10T18:54:43.604Z,101615.51
2019-04-10T18:57:51.397Z,101618.10
2019-04-10T19:01:39.049Z,101624.16
2019-04-10T19:04:51.669Z,101616.37
2019-04-10T19:08:16.466Z,101625.48
2019-04-10T19:11:35.357Z,101633.52
2019-04-10T19:14:51.314Z,101632.44
2019-04-10T19:17:59.389Z,101635.53
2019-04-10T19:21:07.072Z,101642.38
2019-04-10T19:24:14.651Z,101641.08
2019-04-10T19:27:31.886Z,101640.34
2019-04-10T19:30:53.578Z,101642.78
2019-04-10T19:34:14.936Z,101645.15
2019-04-10T19:37:22.879Z,101647.73
2019-04-10T19:40:40.384Z,101654.41
2019-04-10T19:43:48.523Z,101663.00
2019-04-10T19:47:06.196Z,101659.14
2019-04-10T19:50:13.501Z,101660.04
2019-04-10T19:53:21.330Z,101663.93
2019-04-10T19:56:38.250Z,101662.25
2019-04-10T19:59:46.047Z,101669.19
2019-04-10T20:02:53.550Z,101659.81
2019-04-10T20:06:00.749Z,101666.31
2019-04-10T20:09:08.978Z,101659.99
2019-04-10T20:12:26.653Z,101668.49
2019-04-10T20:15:34.236Z,101670.95
2019-04-10T20:18:51.079Z,101672.20
2019-04-10T20:22:08.427Z,101678.73
2019-04-10T20:25:16.475Z,101682.67
2019-04-10T20:28:24.737Z,101684.06
2019-04-10T20:31:34.173Z,101683.66
2019-04-10T20:34:51.771Z,101687.59
2019-04-10T20:37:59.158Z,101688.89
2019-04-10T20:41:06.645Z,101686.85
2019-04-10T20:44:13.955Z,101691.82
2019-04-10T20:47:21.221Z,101692.41
2019-04-10T20:50:28.539Z,101700.63
2019-04-10T20:53:35.979Z,101701.37
2019-04-10T20:56:52.768Z,101694.66
2019-04-10T21:00:13.572Z,101691.23
2019-04-10T21:03:20.926Z,101702.41
2019-04-10T21:06:28.178Z,101707.97
2019-04-10T21:09:36.141Z,101712.11
2019-04-10T21:12:52.661Z,101708.40
2019-04-10T21:16:00.702Z,101714.22
2019-04-10T21:19:09.428Z,101722.16
2019-04-10T21:22:17.016Z,101721.77
2019-04-10T21:25:25.310Z,101726.77
2019-04-10T21:28:32.719Z,101730.92
2019-04-10T21:31:58.917Z,101728.22
2019-04-10T21:35:09.511Z,101727.13
2019-04-10T21:38:17.250Z,101733.33
2019-04-10T21:41:24.612Z,101731.63
2019-04-10T21:44:33.004Z,101738.36
2019-04-10T21:47:40.436Z,101735.87
2019-04-10T21:50:47.760Z,101739.22
2019-04-10T21:53:55.901Z,101744.75
2019-04-10T21:57:03.118Z,101745.37
2019-04-10T22:00:12.234Z,101745.37
2019-04-10T22:03:21.107Z,101741.13
2019-04-10T22:06:59.799Z,101747.36
2019-04-10T22:10:21.335Z,101747.99
2019-04-10T22:13:29.971Z,101743.77
2019-04-10T22:16:38.039Z,101743.02
2019-04-10T22:19:45.473Z,101745.16
2019-04-10T22:22:53.451Z,101750.05
2019-04-10T22:26:00.774Z,101745.54
2019-04-10T22:29:08.004Z,101752.97
2019-04-10T22:32:16.400Z,101751.28
2019-04-10T22:35:23.835Z,101751.77
2019-04-10T22:38:31.123Z,101756.42
2019-04-10T22:41:38.617Z,101757.98
2019-04-10T22:44:48.343Z,101753.77
2019-04-10T22:48:04.799Z,101756.39
2019-04-10T22:51:21.767Z,101764.72
2019-04-10T22:54:38.890Z,101767.34
2019-04-10T22:57:55.260Z,101766.52
2019-04-10T23:01:04.661Z,101773.08
2019-04-10T23:04:12.260Z,101767.97
2019-04-10T23:07:19.910Z,101772.64
2019-04-10T23:10:27.175Z,101772.20
2019-04-10T23:13:34.575Z,101778.46
2019-04-10T23:16:52.495Z,101772.02
2019-04-10T23:20:00.704Z,101779.27
2019-04-10T23:23:08.547Z,101775.48
2019-04-10T23:26:15.971Z,101772.50
2019-04-10T23:29:24.265Z,101772.05
2019-04-10T23:32:31.569Z,101777.58
2019-04-10T23:35:38.790Z,101782.31
2019-04-10T23:38:46.038Z,101781.47
2019-04-10T23:41:53.361Z,101777.53
2019-04-10T23:45:01.730Z,101780.07
2019-04-10T23:48:09.159Z,101779.67
2019-04-10T23:51:16.515Z,101782.59
2019-04-10T23:54:24.721Z,101782.67
2019-04-10T23:57:32.228Z,101784.31
